sensor_id;sensor_type;location;lat;lon;timestamp;P1;durP1;ratioP1;P2;durP2;ratioP2
40951;SDS011;26682;51.660;19.338;2023-02-27T00:00:33;16.52;;;7.25;;
40951;SDS011;26682;51.660;19.338;2023-02-27T00:03:36;18.27;;;6.78;;
40951;SDS011;26682;51.660;19.338;2023-02-27T00:06:19;14.95;;;6.07;;
40951;SDS011;26682;51.660;19.338;2023-02-27T00:09:01;11.20;;;5.97;;
40951;SDS011;26682;51.660;19.338;2023-02-27T00:11:45;11.25;;;5.53;;
40951;SDS011;26682;51.660;19.338;2023-02-27T00:14:27;10.30;;;5.40;;
40951;SDS011;26682;51.660;19.338;2023-02-27T00:17:10;12.65;;;5.72;;
40951;SDS011;26682;51.660;19.338;2023-02-27T00:19:53;16.85;;;7.95;;
40951;SDS011;26682;51.660;19.338;2023-02-27T00:22:35;15.02;;;6.68;;
40951;SDS011;26682;51.660;19.338;2023-02-27T00:25:18;13.05;;;6.43;;
40951;SDS011;26682;51.660;19.338;2023-02-27T00:28:01;14.80;;;6.45;;
40951;SDS011;26682;51.660;19.338;2023-02-27T00:30:44;14.52;;;5.05;;
40951;SDS011;26682;51.660;19.338;2023-02-27T00:33:26;10.88;;;4.65;;
40951;SDS011;26682;51.660;19.338;2023-02-27T00:36:09;8.25;;;4.13;;
40951;SDS011;26682;51.660;19.338;2023-02-27T00:38:51;8.48;;;4.07;;
40951;SDS011;26682;51.660;19.338;2023-02-27T00:41:34;6.93;;;3.80;;
40951;SDS011;26682;51.660;19.338;2023-02-27T00:44:16;11.18;;;4.57;;
40951;SDS011;26682;51.660;19.338;2023-02-27T00:46:59;9.43;;;3.63;;
40951;SDS011;26682;51.660;19.338;2023-02-27T00:49:42;9.10;;;3.90;;
40951;SDS011;26682;51.660;19.338;2023-02-27T00:52:25;10.25;;;4.90;;
40951;SDS011;26682;51.660;19.338;2023-02-27T00:55:08;14.35;;;6.45;;
40951;SDS011;26682;51.660;19.338;2023-02-27T00:57:51;16.00;;;7.05;;
40951;SDS011;26682;51.660;19.338;2023-02-27T01:00:33;17.90;;;7.07;;
40951;SDS011;26682;51.660;19.338;2023-02-27T01:03:16;15.45;;;5.95;;
40951;SDS011;26682;51.660;19.338;2023-02-27T01:05:58;10.38;;;5.00;;
40951;SDS011;26682;51.660;19.338;2023-02-27T01:08:41;14.40;;;5.70;;
40951;SDS011;26682;51.660;19.338;2023-02-27T01:11:24;11.32;;;4.85;;
40951;SDS011;26682;51.660;19.338;2023-02-27T01:14:06;15.98;;;5.53;;
40951;SDS011;26682;51.660;19.338;2023-02-27T01:16:49;14.15;;;6.72;;
40951;SDS011;26682;51.660;19.338;2023-02-27T01:19:31;13.52;;;6.03;;
40951;SDS011;26682;51.660;19.338;2023-02-27T01:22:14;11.90;;;5.55;;
40951;SDS011;26682;51.660;19.338;2023-02-27T01:24:56;17.08;;;7.10;;
40951;SDS011;26682;51.660;19.338;2023-02-27T01:27:39;21.13;;;8.40;;
40951;SDS011;26682;51.660;19.338;2023-02-27T01:30:21;15.93;;;6.07;;
40951;SDS011;26682;51.660;19.338;2023-02-27T01:33:04;11.88;;;5.07;;
40951;SDS011;26682;51.660;19.338;2023-02-27T01:35:46;15.48;;;5.90;;
40951;SDS011;26682;51.660;19.338;2023-02-27T01:38:29;9.32;;;4.40;;
40951;SDS011;26682;51.660;19.338;2023-02-27T01:41:14;11.15;;;5.45;;
40951;SDS011;26682;51.660;19.338;2023-02-27T01:46:43;11.68;;;4.22;;
40951;SDS011;26682;51.660;19.338;2023-02-27T01:49:27;10.38;;;4.55;;
40951;SDS011;26682;51.660;19.338;2023-02-27T01:52:12;9.68;;;3.88;;
40951;SDS011;26682;51.660;19.338;2023-02-27T01:54:58;17.02;;;6.68;;
40951;SDS011;26682;51.660;19.338;2023-02-27T01:57:41;21.55;;;7.47;;
40951;SDS011;26682;51.660;19.338;2023-02-27T02:00:28;17.00;;;6.50;;
40951;SDS011;26682;51.660;19.338;2023-02-27T02:03:33;12.82;;;5.45;;
40951;SDS011;26682;51.660;19.338;2023-02-27T02:06:23;12.18;;;4.75;;
40951;SDS011;26682;51.660;19.338;2023-02-27T02:09:05;12.52;;;4.60;;
40951;SDS011;26682;51.660;19.338;2023-02-27T02:11:50;11.93;;;4.05;;
40951;SDS011;26682;51.660;19.338;2023-02-27T02:14:33;10.27;;;4.28;;
40951;SDS011;26682;51.660;19.338;2023-02-27T02:53:59;10.05;;;4.82;;
40951;SDS011;26682;51.660;19.338;2023-02-27T03:02:35;13.25;;;5.10;;
40951;SDS011;26682;51.660;19.338;2023-02-27T03:05:24;7.95;;;4.75;;
40951;SDS011;26682;51.660;19.338;2023-02-27T03:08:16;12.82;;;5.75;;
40951;SDS011;26682;51.660;19.338;2023-02-27T03:11:03;11.48;;;5.90;;
40951;SDS011;26682;51.660;19.338;2023-02-27T03:13:53;15.77;;;7.20;;
40951;SDS011;26682;51.660;19.338;2023-02-27T03:16:43;14.63;;;5.88;;
40951;SDS011;26682;51.660;19.338;2023-02-27T03:19:51;9.07;;;5.22;;
40951;SDS011;26682;51.660;19.338;2023-02-27T03:22:38;10.23;;;4.80;;
40951;SDS011;26682;51.660;19.338;2023-02-27T03:25:25;10.82;;;5.03;;
40951;SDS011;26682;51.660;19.338;2023-02-27T03:28:12;9.60;;;5.25;;
40951;SDS011;26682;51.660;19.338;2023-02-27T03:34:12;8.90;;;5.53;;
40951;SDS011;26682;51.660;19.338;2023-02-27T03:37:14;11.13;;;5.28;;
40951;SDS011;26682;51.660;19.338;2023-02-27T03:46:18;11.18;;;6.38;;
40951;SDS011;26682;51.660;19.338;2023-02-27T03:49:04;13.70;;;6.93;;
40951;SDS011;26682;51.660;19.338;2023-02-27T03:51:47;13.98;;;6.10;;
40951;SDS011;26682;51.660;19.338;2023-02-27T03:54:37;13.40;;;5.65;;
40951;SDS011;26682;51.660;19.338;2023-02-27T03:57:26;12.52;;;7.95;;
40951;SDS011;26682;51.660;19.338;2023-02-27T04:00:11;11.45;;;6.78;;
40951;SDS011;26682;51.660;19.338;2023-02-27T04:02:59;15.77;;;8.43;;
40951;SDS011;26682;51.660;19.338;2023-02-27T04:05:44;15.30;;;7.90;;
40951;SDS011;26682;51.660;19.338;2023-02-27T04:08:37;15.90;;;8.85;;
40951;SDS011;26682;51.660;19.338;2023-02-27T04:11:37;17.10;;;10.13;;
40951;SDS011;26682;51.660;19.338;2023-02-27T04:14:27;15.07;;;8.45;;
40951;SDS011;26682;51.660;19.338;2023-02-27T04:17:21;17.77;;;9.77;;
40951;SDS011;26682;51.660;19.338;2023-02-27T04:20:21;14.68;;;8.93;;
40951;SDS011;26682;51.660;19.338;2023-02-27T04:23:27;16.27;;;10.02;;
40951;SDS011;26682;51.660;19.338;2023-02-27T04:26:41;20.20;;;12.25;;
40951;SDS011;26682;51.660;19.338;2023-02-27T04:35:25;15.90;;;10.25;;
40951;SDS011;26682;51.660;19.338;2023-02-27T04:38:17;17.38;;;11.10;;
40951;SDS011;26682;51.660;19.338;2023-02-27T04:41:26;27.67;;;13.10;;
40951;SDS011;26682;51.660;19.338;2023-02-27T04:44:17;40.63;;;21.13;;
40951;SDS011;26682;51.660;19.338;2023-02-27T04:47:02;29.95;;;15.65;;
40951;SDS011;26682;51.660;19.338;2023-02-27T04:52:47;24.30;;;14.02;;
40951;SDS011;26682;51.660;19.338;2023-02-27T04:55:37;42.42;;;19.40;;
40951;SDS011;26682;51.660;19.338;2023-02-27T04:58:31;30.67;;;17.15;;
40951;SDS011;26682;51.660;19.338;2023-02-27T05:01:25;24.20;;;13.23;;
40951;SDS011;26682;51.660;19.338;2023-02-27T05:04:15;26.10;;;14.65;;
40951;SDS011;26682;51.660;19.338;2023-02-27T05:07:02;30.02;;;17.08;;
40951;SDS011;26682;51.660;19.338;2023-02-27T05:09:55;39.58;;;23.77;;
40951;SDS011;26682;51.660;19.338;2023-02-27T05:12:48;33.83;;;23.50;;
40951;SDS011;26682;51.660;19.338;2023-02-27T05:18:21;17.67;;;12.43;;
40951;SDS011;26682;51.660;19.338;2023-02-27T05:29:49;26.63;;;16.85;;
40951;SDS011;26682;51.660;19.338;2023-02-27T05:32:35;24.23;;;14.07;;
40951;SDS011;26682;51.660;19.338;2023-02-27T05:35:33;23.35;;;14.10;;
40951;SDS011;26682;51.660;19.338;2023-02-27T05:38:31;36.10;;;19.38;;
40951;SDS011;26682;51.660;19.338;2023-02-27T05:41:41;57.55;;;41.47;;
40951;SDS011;26682;51.660;19.338;2023-02-27T05:44:34;55.20;;;33.20;;
40951;SDS011;26682;51.660;19.338;2023-02-27T05:47:21;40.83;;;25.95;;
40951;SDS011;26682;51.660;19.338;2023-02-27T05:52:56;37.25;;;22.50;;
40951;SDS011;26682;51.660;19.338;2023-02-27T05:55:43;38.03;;;22.10;;
40951;SDS011;26682;51.660;19.338;2023-02-27T05:58:31;52.50;;;28.88;;
40951;SDS011;26682;51.660;19.338;2023-02-27T06:01:19;38.53;;;21.80;;
40951;SDS011;26682;51.660;19.338;2023-02-27T06:04:02;46.45;;;24.13;;
40951;SDS011;26682;51.660;19.338;2023-02-27T06:06:44;41.65;;;23.52;;
40951;SDS011;26682;51.660;19.338;2023-02-27T06:09:28;61.78;;;32.85;;
40951;SDS011;26682;51.660;19.338;2023-02-27T06:12:10;53.20;;;28.55;;
40951;SDS011;26682;51.660;19.338;2023-02-27T06:14:53;42.88;;;24.98;;
40951;SDS011;26682;51.660;19.338;2023-02-27T06:17:36;32.33;;;19.10;;
40951;SDS011;26682;51.660;19.338;2023-02-27T06:20:20;46.78;;;30.33;;
40951;SDS011;26682;51.660;19.338;2023-02-27T06:23:02;31.13;;;21.60;;
40951;SDS011;26682;51.660;19.338;2023-02-27T06:25:46;29.52;;;18.85;;
40951;SDS011;26682;51.660;19.338;2023-02-27T06:28:29;19.60;;;13.23;;
40951;SDS011;26682;51.660;19.338;2023-02-27T06:31:12;30.35;;;19.67;;
40951;SDS011;26682;51.660;19.338;2023-02-27T06:33:54;28.13;;;16.17;;
40951;SDS011;26682;51.660;19.338;2023-02-27T06:36:37;21.90;;;14.27;;
40951;SDS011;26682;51.660;19.338;2023-02-27T06:39:19;23.02;;;15.18;;
40951;SDS011;26682;51.660;19.338;2023-02-27T06:42:02;21.25;;;13.93;;
40951;SDS011;26682;51.660;19.338;2023-02-27T06:44:45;20.83;;;14.13;;
40951;SDS011;26682;51.660;19.338;2023-02-27T06:47:27;20.80;;;14.00;;
40951;SDS011;26682;51.660;19.338;2023-02-27T06:50:11;19.98;;;13.27;;
40951;SDS011;26682;51.660;19.338;2023-02-27T06:52:54;18.98;;;14.52;;
40951;SDS011;26682;51.660;19.338;2023-02-27T06:55:37;18.60;;;13.63;;
40951;SDS011;26682;51.660;19.338;2023-02-27T06:58:19;20.10;;;12.85;;
40951;SDS011;26682;51.660;19.338;2023-02-27T07:01:01;22.27;;;13.43;;
40951;SDS011;26682;51.660;19.338;2023-02-27T07:03:44;18.40;;;12.75;;
40951;SDS011;26682;51.660;19.338;2023-02-27T07:06:27;19.80;;;13.88;;
40951;SDS011;26682;51.660;19.338;2023-02-27T07:09:29;22.63;;;13.52;;
40951;SDS011;26682;51.660;19.338;2023-02-27T07:12:12;18.73;;;13.60;;
40951;SDS011;26682;51.660;19.338;2023-02-27T07:14:55;19.95;;;13.25;;
40951;SDS011;26682;51.660;19.338;2023-02-27T07:17:37;20.73;;;13.25;;
40951;SDS011;26682;51.660;19.338;2023-02-27T07:20:20;21.77;;;13.43;;
40951;SDS011;26682;51.660;19.338;2023-02-27T07:23:02;19.65;;;14.05;;
40951;SDS011;26682;51.660;19.338;2023-02-27T07:25:45;17.25;;;12.10;;
40951;SDS011;26682;51.660;19.338;2023-02-27T07:28:28;19.35;;;13.60;;
40951;SDS011;26682;51.660;19.338;2023-02-27T07:31:11;20.88;;;13.57;;
40951;SDS011;26682;51.660;19.338;2023-02-27T07:33:53;20.70;;;14.70;;
40951;SDS011;26682;51.660;19.338;2023-02-27T07:36:36;19.63;;;14.48;;
40951;SDS011;26682;51.660;19.338;2023-02-27T07:39:19;22.30;;;16.05;;
40951;SDS011;26682;51.660;19.338;2023-02-27T07:42:02;25.23;;;16.70;;
40951;SDS011;26682;51.660;19.338;2023-02-27T07:44:45;22.23;;;14.27;;
40951;SDS011;26682;51.660;19.338;2023-02-27T07:47:28;28.40;;;15.82;;
40951;SDS011;26682;51.660;19.338;2023-02-27T07:50:11;18.80;;;12.98;;
40951;SDS011;26682;51.660;19.338;2023-02-27T07:52:54;19.38;;;13.45;;
40951;SDS011;26682;51.660;19.338;2023-02-27T07:55:37;17.13;;;11.70;;
40951;SDS011;26682;51.660;19.338;2023-02-27T07:58:20;19.77;;;13.82;;
40951;SDS011;26682;51.660;19.338;2023-02-27T08:01:02;16.75;;;11.93;;
40951;SDS011;26682;51.660;19.338;2023-02-27T08:03:45;14.25;;;11.05;;
40951;SDS011;26682;51.660;19.338;2023-02-27T08:06:27;16.05;;;12.10;;
40951;SDS011;26682;51.660;19.338;2023-02-27T08:09:11;20.27;;;13.63;;
40951;SDS011;26682;51.660;19.338;2023-02-27T08:11:53;20.23;;;11.25;;
40951;SDS011;26682;51.660;19.338;2023-02-27T08:14:36;19.65;;;11.85;;
40951;SDS011;26682;51.660;19.338;2023-02-27T08:17:19;19.73;;;11.88;;
40951;SDS011;26682;51.660;19.338;2023-02-27T08:20:02;17.33;;;10.63;;
40951;SDS011;26682;51.660;19.338;2023-02-27T08:22:45;15.27;;;9.18;;
40951;SDS011;26682;51.660;19.338;2023-02-27T08:25:28;16.88;;;9.30;;
40951;SDS011;26682;51.660;19.338;2023-02-27T08:28:11;13.00;;;9.05;;
40951;SDS011;26682;51.660;19.338;2023-02-27T08:30:53;14.20;;;8.25;;
40951;SDS011;26682;51.660;19.338;2023-02-27T08:33:36;16.08;;;10.68;;
40951;SDS011;26682;51.660;19.338;2023-02-27T08:36:18;15.93;;;9.90;;
40951;SDS011;26682;51.660;19.338;2023-02-27T08:39:01;20.95;;;11.00;;
40951;SDS011;26682;51.660;19.338;2023-02-27T08:41:43;18.17;;;11.00;;
40951;SDS011;26682;51.660;19.338;2023-02-27T08:44:26;19.23;;;11.40;;
40951;SDS011;26682;51.660;19.338;2023-02-27T08:47:09;18.23;;;10.77;;
40951;SDS011;26682;51.660;19.338;2023-02-27T08:49:51;13.50;;;9.43;;
40951;SDS011;26682;51.660;19.338;2023-02-27T08:52:34;14.85;;;11.00;;
40951;SDS011;26682;51.660;19.338;2023-02-27T08:55:16;9.68;;;6.75;;
40951;SDS011;26682;51.660;19.338;2023-02-27T08:57:59;13.15;;;8.80;;
40951;SDS011;26682;51.660;19.338;2023-02-27T09:00:41;12.85;;;6.65;;
40951;SDS011;26682;51.660;19.338;2023-02-27T09:03:24;11.55;;;6.68;;
40951;SDS011;26682;51.660;19.338;2023-02-27T09:06:09;7.68;;;5.30;;
40951;SDS011;26682;51.660;19.338;2023-02-27T09:08:52;9.43;;;6.15;;
40951;SDS011;26682;51.660;19.338;2023-02-27T09:11:35;13.15;;;7.97;;
40951;SDS011;26682;51.660;19.338;2023-02-27T09:14:19;16.90;;;9.82;;
40951;SDS011;26682;51.660;19.338;2023-02-27T09:17:02;8.05;;;6.30;;
40951;SDS011;26682;51.660;19.338;2023-02-27T09:19:44;10.63;;;7.00;;
40951;SDS011;26682;51.660;19.338;2023-02-27T09:22:27;11.93;;;7.88;;
40951;SDS011;26682;51.660;19.338;2023-02-27T09:25:09;10.07;;;6.70;;
40951;SDS011;26682;51.660;19.338;2023-02-27T09:27:52;19.02;;;7.30;;
40951;SDS011;26682;51.660;19.338;2023-02-27T09:30:35;10.43;;;6.93;;
40951;SDS011;26682;51.660;19.338;2023-02-27T09:33:17;9.48;;;4.93;;
40951;SDS011;26682;51.660;19.338;2023-02-27T09:36:00;13.60;;;5.63;;
40951;SDS011;26682;51.660;19.338;2023-02-27T09:38:43;11.73;;;5.40;;
40951;SDS011;26682;51.660;19.338;2023-02-27T09:44:23;6.32;;;4.57;;
40951;SDS011;26682;51.660;19.338;2023-02-27T09:47:26;8.55;;;4.65;;
40951;SDS011;26682;51.660;19.338;2023-02-27T09:53:24;6.75;;;4.47;;
40951;SDS011;26682;51.660;19.338;2023-02-27T09:56:40;7.57;;;4.30;;
40951;SDS011;26682;51.660;19.338;2023-02-27T10:02:37;12.13;;;5.75;;
40951;SDS011;26682;51.660;19.338;2023-02-27T10:05:33;7.80;;;5.10;;
40951;SDS011;26682;51.660;19.338;2023-02-27T10:08:38;5.88;;;3.85;;
40951;SDS011;26682;51.660;19.338;2023-02-27T10:17:45;8.30;;;3.88;;
40951;SDS011;26682;51.660;19.338;2023-02-27T10:20:35;11.25;;;5.70;;
40951;SDS011;26682;51.660;19.338;2023-02-27T10:23:21;11.45;;;4.78;;
40951;SDS011;26682;51.660;19.338;2023-02-27T10:26:28;8.32;;;4.40;;
40951;SDS011;26682;51.660;19.338;2023-02-27T10:29:15;9.07;;;4.15;;
40951;SDS011;26682;51.660;19.338;2023-02-27T10:32:06;6.70;;;2.78;;
40951;SDS011;26682;51.660;19.338;2023-02-27T10:37:45;11.85;;;5.50;;
40951;SDS011;26682;51.660;19.338;2023-02-27T10:40:31;5.50;;;3.17;;
40951;SDS011;26682;51.660;19.338;2023-02-27T10:43:17;8.03;;;4.17;;
40951;SDS011;26682;51.660;19.338;2023-02-27T10:46:01;5.78;;;3.03;;
40951;SDS011;26682;51.660;19.338;2023-02-27T10:48:45;7.28;;;4.00;;
40951;SDS011;26682;51.660;19.338;2023-02-27T10:51:29;8.57;;;4.18;;
40951;SDS011;26682;51.660;19.338;2023-02-27T10:54:23;4.75;;;2.60;;
40951;SDS011;26682;51.660;19.338;2023-02-27T11:00:21;6.35;;;3.08;;
40951;SDS011;26682;51.660;19.338;2023-02-27T11:03:15;6.15;;;4.28;;
40951;SDS011;26682;51.660;19.338;2023-02-27T11:09:09;7.28;;;3.95;;
40951;SDS011;26682;51.660;19.338;2023-02-27T11:18:20;5.35;;;3.20;;
40951;SDS011;26682;51.660;19.338;2023-02-27T11:21:15;6.82;;;2.97;;
40951;SDS011;26682;51.660;19.338;2023-02-27T11:24:16;9.85;;;3.00;;
40951;SDS011;26682;51.660;19.338;2023-02-27T11:27:01;10.60;;;5.47;;
40951;SDS011;26682;51.660;19.338;2023-02-27T11:33:16;11.55;;;5.88;;
40951;SDS011;26682;51.660;19.338;2023-02-27T11:36:01;23.55;;;10.82;;
40951;SDS011;26682;51.660;19.338;2023-02-27T11:38:54;9.10;;;4.72;;
40951;SDS011;26682;51.660;19.338;2023-02-27T11:41:37;20.08;;;7.35;;
40951;SDS011;26682;51.660;19.338;2023-02-27T11:44:26;20.05;;;8.27;;
40951;SDS011;26682;51.660;19.338;2023-02-27T11:47:31;19.27;;;7.20;;
40951;SDS011;26682;51.660;19.338;2023-02-27T11:50:23;37.28;;;13.50;;
40951;SDS011;26682;51.660;19.338;2023-02-27T11:56:17;28.48;;;11.45;;
40951;SDS011;26682;51.660;19.338;2023-02-27T11:59:13;25.80;;;11.90;;
40951;SDS011;26682;51.660;19.338;2023-02-27T12:05:44;14.43;;;6.05;;
40951;SDS011;26682;51.660;19.338;2023-02-27T12:14:24;15.02;;;7.63;;
40951;SDS011;26682;51.660;19.338;2023-02-27T12:17:29;14.55;;;6.70;;
40951;SDS011;26682;51.660;19.338;2023-02-27T12:23:14;10.52;;;6.00;;
40951;SDS011;26682;51.660;19.338;2023-02-27T12:26:22;11.15;;;5.57;;
40951;SDS011;26682;51.660;19.338;2023-02-27T12:29:37;8.07;;;4.00;;
40951;SDS011;26682;51.660;19.338;2023-02-27T12:33:08;20.70;;;9.82;;
40951;SDS011;26682;51.660;19.338;2023-02-27T12:35:50;13.20;;;7.68;;
40951;SDS011;26682;51.660;19.338;2023-02-27T12:38:37;7.38;;;3.70;;
40951;SDS011;26682;51.660;19.338;2023-02-27T12:47:27;4.45;;;2.55;;
40951;SDS011;26682;51.660;19.338;2023-02-27T12:50:18;5.88;;;3.20;;
40951;SDS011;26682;51.660;19.338;2023-02-27T12:56:10;6.13;;;3.83;;
40951;SDS011;26682;51.660;19.338;2023-02-27T13:02:05;8.75;;;3.92;;
40951;SDS011;26682;51.660;19.338;2023-02-27T13:05:13;10.48;;;3.70;;
40951;SDS011;26682;51.660;19.338;2023-02-27T13:14:01;10.85;;;5.05;;
40951;SDS011;26682;51.660;19.338;2023-02-27T13:16:54;5.22;;;2.33;;
40951;SDS011;26682;51.660;19.338;2023-02-27T13:20:10;8.02;;;3.75;;
40951;SDS011;26682;51.660;19.338;2023-02-27T13:23:17;9.77;;;4.90;;
40951;SDS011;26682;51.660;19.338;2023-02-27T13:26:24;6.85;;;4.10;;
40951;SDS011;26682;51.660;19.338;2023-02-27T13:29:15;6.47;;;3.30;;
40951;SDS011;26682;51.660;19.338;2023-02-27T13:32:03;7.90;;;3.65;;
40951;SDS011;26682;51.660;19.338;2023-02-27T13:34:56;9.20;;;3.90;;
40951;SDS011;26682;51.660;19.338;2023-02-27T13:40:38;12.52;;;4.32;;
40951;SDS011;26682;51.660;19.338;2023-02-27T13:46:26;3.95;;;2.00;;
40951;SDS011;26682;51.660;19.338;2023-02-27T13:52:09;15.05;;;8.32;;
40951;SDS011;26682;51.660;19.338;2023-02-27T13:54:52;11.10;;;7.50;;
40951;SDS011;26682;51.660;19.338;2023-02-27T13:57:40;18.92;;;14.02;;
40951;SDS011;26682;51.660;19.338;2023-02-27T14:00:28;19.23;;;9.93;;
40951;SDS011;26682;51.660;19.338;2023-02-27T14:03:21;52.10;;;30.85;;
40951;SDS011;26682;51.660;19.338;2023-02-27T14:06:06;54.30;;;27.88;;
40951;SDS011;26682;51.660;19.338;2023-02-27T14:08:52;67.13;;;36.42;;
40951;SDS011;26682;51.660;19.338;2023-02-27T14:11:56;18.77;;;10.32;;
40951;SDS011;26682;51.660;19.338;2023-02-27T14:14:45;19.15;;;11.40;;
40951;SDS011;26682;51.660;19.338;2023-02-27T14:26:16;12.75;;;7.72;;
40951;SDS011;26682;51.660;19.338;2023-02-27T14:29:01;13.05;;;5.90;;
40951;SDS011;26682;51.660;19.338;2023-02-27T14:31:44;7.57;;;5.78;;
40951;SDS011;26682;51.660;19.338;2023-02-27T14:34:28;11.13;;;6.65;;
40951;SDS011;26682;51.660;19.338;2023-02-27T14:37:15;9.80;;;5.70;;
40951;SDS011;26682;51.660;19.338;2023-02-27T14:40:04;16.42;;;8.60;;
40951;SDS011;26682;51.660;19.338;2023-02-27T14:46:04;16.02;;;8.95;;
40951;SDS011;26682;51.660;19.338;2023-02-27T14:48:57;15.00;;;8.18;;
40951;SDS011;26682;51.660;19.338;2023-02-27T14:51:42;25.02;;;9.88;;
40951;SDS011;26682;51.660;19.338;2023-02-27T14:54:26;20.42;;;9.90;;
40951;SDS011;26682;51.660;19.338;2023-02-27T14:57:24;18.92;;;9.63;;
40951;SDS011;26682;51.660;19.338;2023-02-27T15:00:26;13.43;;;7.35;;
40951;SDS011;26682;51.660;19.338;2023-02-27T15:03:25;11.35;;;7.65;;
40951;SDS011;26682;51.660;19.338;2023-02-27T15:06:33;19.98;;;10.60;;
40951;SDS011;26682;51.660;19.338;2023-02-27T15:09:22;13.07;;;7.72;;
40951;SDS011;26682;51.660;19.338;2023-02-27T15:12:15;54.95;;;28.35;;
40951;SDS011;26682;51.660;19.338;2023-02-27T15:15:02;77.32;;;38.83;;
40951;SDS011;26682;51.660;19.338;2023-02-27T15:17:47;34.70;;;15.75;;
40951;SDS011;26682;51.660;19.338;2023-02-27T15:20:34;52.00;;;28.98;;
40951;SDS011;26682;51.660;19.338;2023-02-27T15:23:23;24.00;;;13.80;;
40951;SDS011;26682;51.660;19.338;2023-02-27T15:26:09;37.55;;;15.82;;
40951;SDS011;26682;51.660;19.338;2023-02-27T15:28:54;37.50;;;17.63;;
40951;SDS011;26682;51.660;19.338;2023-02-27T15:31:41;18.50;;;10.25;;
40951;SDS011;26682;51.660;19.338;2023-02-27T15:34:26;43.45;;;19.00;;
40951;SDS011;26682;51.660;19.338;2023-02-27T15:37:32;39.08;;;18.95;;
40951;SDS011;26682;51.660;19.338;2023-02-27T15:40:16;19.05;;;10.48;;
40951;SDS011;26682;51.660;19.338;2023-02-27T15:43:02;52.80;;;21.13;;
40951;SDS011;26682;51.660;19.338;2023-02-27T15:45:44;50.47;;;21.05;;
40951;SDS011;26682;51.660;19.338;2023-02-27T15:48:28;51.40;;;19.90;;
40951;SDS011;26682;51.660;19.338;2023-02-27T15:51:13;19.77;;;9.82;;
40951;SDS011;26682;51.660;19.338;2023-02-27T15:53:57;34.83;;;15.70;;
40951;SDS011;26682;51.660;19.338;2023-02-27T15:56:41;52.85;;;23.65;;
40951;SDS011;26682;51.660;19.338;2023-02-27T15:59:24;60.10;;;23.33;;
40951;SDS011;26682;51.660;19.338;2023-02-27T16:03:07;49.20;;;21.67;;
40951;SDS011;26682;51.660;19.338;2023-02-27T16:05:34;46.00;;;19.75;;
40951;SDS011;26682;51.660;19.338;2023-02-27T16:08:19;64.05;;;25.95;;
40951;SDS011;26682;51.660;19.338;2023-02-27T16:11:02;82.45;;;34.15;;
40951;SDS011;26682;51.660;19.338;2023-02-27T16:13:45;43.67;;;18.20;;
40951;SDS011;26682;51.660;19.338;2023-02-27T16:16:29;76.50;;;34.10;;
40951;SDS011;26682;51.660;19.338;2023-02-27T16:19:23;101.03;;;40.38;;
40951;SDS011;26682;51.660;19.338;2023-02-27T16:22:15;74.00;;;30.73;;
40951;SDS011;26682;51.660;19.338;2023-02-27T16:25:09;77.07;;;33.50;;
40951;SDS011;26682;51.660;19.338;2023-02-27T16:27:59;93.05;;;37.30;;
40951;SDS011;26682;51.660;19.338;2023-02-27T16:30:42;46.95;;;22.45;;
40951;SDS011;26682;51.660;19.338;2023-02-27T16:33:31;49.33;;;21.13;;
40951;SDS011;26682;51.660;19.338;2023-02-27T16:36:18;88.10;;;34.20;;
40951;SDS011;26682;51.660;19.338;2023-02-27T16:39:03;94.30;;;36.87;;
40951;SDS011;26682;51.660;19.338;2023-02-27T16:41:46;175.50;;;54.55;;
40951;SDS011;26682;51.660;19.338;2023-02-27T16:44:30;89.70;;;32.58;;
40951;SDS011;26682;51.660;19.338;2023-02-27T16:47:12;90.25;;;33.38;;
40951;SDS011;26682;51.660;19.338;2023-02-27T16:49:55;69.68;;;26.00;;
40951;SDS011;26682;51.660;19.338;2023-02-27T16:52:38;292.10;;;114.05;;
40951;SDS011;26682;51.660;19.338;2023-02-27T16:55:23;360.58;;;152.30;;
40951;SDS011;26682;51.660;19.338;2023-02-27T16:58:08;317.73;;;117.45;;
40951;SDS011;26682;51.660;19.338;2023-02-27T17:00:57;216.20;;;90.88;;
40951;SDS011;26682;51.660;19.338;2023-02-27T17:03:43;300.23;;;103.95;;
40951;SDS011;26682;51.660;19.338;2023-02-27T17:06:27;200.98;;;60.50;;
40951;SDS011;26682;51.660;19.338;2023-02-27T17:09:11;191.98;;;68.35;;
40951;SDS011;26682;51.660;19.338;2023-02-27T17:11:55;166.93;;;79.10;;
40951;SDS011;26682;51.660;19.338;2023-02-27T17:14:38;207.38;;;87.40;;
40951;SDS011;26682;51.660;19.338;2023-02-27T17:17:22;170.82;;;78.70;;
40951;SDS011;26682;51.660;19.338;2023-02-27T17:20:06;110.75;;;49.10;;
40951;SDS011;26682;51.660;19.338;2023-02-27T17:22:51;122.88;;;50.25;;
40951;SDS011;26682;51.660;19.338;2023-02-27T17:25:34;94.15;;;41.90;;
40951;SDS011;26682;51.660;19.338;2023-02-27T17:28:18;115.15;;;44.35;;
40951;SDS011;26682;51.660;19.338;2023-02-27T17:31:07;137.50;;;43.88;;
40951;SDS011;26682;51.660;19.338;2023-02-27T17:33:51;122.18;;;41.42;;
40951;SDS011;26682;51.660;19.338;2023-02-27T17:36:34;140.13;;;46.90;;
40951;SDS011;26682;51.660;19.338;2023-02-27T17:39:19;107.35;;;38.70;;
40951;SDS011;26682;51.660;19.338;2023-02-27T17:42:02;68.78;;;28.25;;
40951;SDS011;26682;51.660;19.338;2023-02-27T17:44:46;44.58;;;21.38;;
40951;SDS011;26682;51.660;19.338;2023-02-27T17:47:28;175.88;;;54.33;;
40951;SDS011;26682;51.660;19.338;2023-02-27T17:50:12;103.63;;;36.58;;
40951;SDS011;26682;51.660;19.338;2023-02-27T17:52:55;130.80;;;41.03;;
40951;SDS011;26682;51.660;19.338;2023-02-27T17:55:38;173.70;;;52.60;;
40951;SDS011;26682;51.660;19.338;2023-02-27T17:58:21;88.70;;;33.13;;
40951;SDS011;26682;51.660;19.338;2023-02-27T18:01:11;74.07;;;29.48;;
40951;SDS011;26682;51.660;19.338;2023-02-27T18:03:55;135.55;;;42.53;;
40951;SDS011;26682;51.660;19.338;2023-02-27T18:06:39;115.43;;;37.50;;
40951;SDS011;26682;51.660;19.338;2023-02-27T18:09:22;122.85;;;43.85;;
40951;SDS011;26682;51.660;19.338;2023-02-27T18:12:05;204.35;;;63.10;;
40951;SDS011;26682;51.660;19.338;2023-02-27T18:14:48;106.05;;;38.05;;
40951;SDS011;26682;51.660;19.338;2023-02-27T18:17:31;57.65;;;29.58;;
40951;SDS011;26682;51.660;19.338;2023-02-27T18:20:17;62.42;;;34.33;;
40951;SDS011;26682;51.660;19.338;2023-02-27T18:23:02;77.07;;;39.50;;
40951;SDS011;26682;51.660;19.338;2023-02-27T18:25:51;94.13;;;49.95;;
40951;SDS011;26682;51.660;19.338;2023-02-27T18:28:38;93.97;;;51.25;;
40951;SDS011;26682;51.660;19.338;2023-02-27T18:31:23;80.25;;;43.17;;
40951;SDS011;26682;51.660;19.338;2023-02-27T18:34:08;58.65;;;33.33;;
40951;SDS011;26682;51.660;19.338;2023-02-27T18:36:51;147.18;;;88.57;;
40951;SDS011;26682;51.660;19.338;2023-02-27T18:39:34;96.00;;;53.20;;
40951;SDS011;26682;51.660;19.338;2023-02-27T18:42:17;113.60;;;60.22;;
40951;SDS011;26682;51.660;19.338;2023-02-27T18:45:00;84.28;;;45.47;;
40951;SDS011;26682;51.660;19.338;2023-02-27T18:47:45;106.18;;;56.80;;
40951;SDS011;26682;51.660;19.338;2023-02-27T18:50:28;234.50;;;111.40;;
40951;SDS011;26682;51.660;19.338;2023-02-27T18:53:11;182.85;;;85.82;;
40951;SDS011;26682;51.660;19.338;2023-02-27T18:55:58;135.85;;;68.32;;
40951;SDS011;26682;51.660;19.338;2023-02-27T18:58:42;102.88;;;53.70;;